sensor_id;sensor_type;location;lat;lon;timestamp;P1;durP1;ratioP1;P2;durP2;ratioP2
77324;SDS011;66387;53.440;10.390;2024-03-17T00:02:17;8.93;;;2.33;;
77324;SDS011;66387;53.440;10.390;2024-03-17T00:04:43;12.40;;;2.65;;
77324;SDS011;66387;53.440;10.390;2024-03-17T00:07:08;9.00;;;2.17;;
77324;SDS011;66387;53.440;10.390;2024-03-17T00:09:34;6.77;;;2.43;;
77324;SDS011;66387;53.440;10.390;2024-03-17T00:11:59;6.43;;;2.55;;
77324;SDS011;66387;53.440;10.390;2024-03-17T00:14:25;7.40;;;2.30;;
77324;SDS011;66387;53.440;10.390;2024-03-17T00:16:52;7.90;;;2.30;;
77324;SDS011;66387;53.440;10.390;2024-03-17T00:19:17;10.13;;;2.10;;
77324;SDS011;66387;53.440;10.390;2024-03-17T00:21:43;6.23;;;2.30;;
77324;SDS011;66387;53.440;10.390;2024-03-17T00:24:09;5.63;;;2.35;;
77324;SDS011;66387;53.440;10.390;2024-03-17T00:26:34;7.07;;;2.58;;
77324;SDS011;66387;53.440;10.390;2024-03-17T00:29:00;6.30;;;1.90;;
77324;SDS011;66387;53.440;10.390;2024-03-17T00:31:25;12.90;;;2.80;;
77324;SDS011;66387;53.440;10.390;2024-03-17T00:33:53;6.82;;;2.10;;
77324;SDS011;66387;53.440;10.390;2024-03-17T00:36:19;6.57;;;2.28;;
77324;SDS011;66387;53.440;10.390;2024-03-17T00:38:45;8.32;;;2.53;;
77324;SDS011;66387;53.440;10.390;2024-03-17T00:41:10;8.32;;;2.88;;
77324;SDS011;66387;53.440;10.390;2024-03-17T00:43:36;7.20;;;2.10;;
77324;SDS011;66387;53.440;10.390;2024-03-17T00:46:02;11.88;;;2.40;;
77324;SDS011;66387;53.440;10.390;2024-03-17T00:48:28;7.00;;;2.72;;
77324;SDS011;66387;53.440;10.390;2024-03-17T00:50:56;10.60;;;2.17;;
77324;SDS011;66387;53.440;10.390;2024-03-17T00:53:22;8.15;;;2.13;;
77324;SDS011;66387;53.440;10.390;2024-03-17T00:55:51;6.00;;;2.90;;
77324;SDS011;66387;53.440;10.390;2024-03-17T00:58:18;10.77;;;2.22;;
77324;SDS011;66387;53.440;10.390;2024-03-17T01:00:45;4.95;;;2.10;;
77324;SDS011;66387;53.440;10.390;2024-03-17T01:03:11;9.77;;;2.83;;
77324;SDS011;66387;53.440;10.390;2024-03-17T01:05:37;11.87;;;2.87;;
77324;SDS011;66387;53.440;10.390;2024-03-17T01:08:07;12.15;;;2.35;;
77324;SDS011;66387;53.440;10.390;2024-03-17T01:10:32;9.90;;;3.23;;
77324;SDS011;66387;53.440;10.390;2024-03-17T01:12:57;8.13;;;2.63;;
77324;SDS011;66387;53.440;10.390;2024-03-17T01:15:22;10.10;;;2.67;;
77324;SDS011;66387;53.440;10.390;2024-03-17T01:17:48;14.37;;;2.87;;
77324;SDS011;66387;53.440;10.390;2024-03-17T01:20:13;8.20;;;3.00;;
77324;SDS011;66387;53.440;10.390;2024-03-17T01:22:38;4.03;;;2.30;;
77324;SDS011;66387;53.440;10.390;2024-03-17T01:25:03;13.17;;;2.27;;
77324;SDS011;66387;53.440;10.390;2024-03-17T01:27:29;9.02;;;1.83;;
77324;SDS011;66387;53.440;10.390;2024-03-17T01:29:54;16.00;;;2.47;;
77324;SDS011;66387;53.440;10.390;2024-03-17T01:32:20;15.20;;;3.83;;
77324;SDS011;66387;53.440;10.390;2024-03-17T01:34:45;6.30;;;2.50;;
77324;SDS011;66387;53.440;10.390;2024-03-17T01:37:11;9.15;;;2.58;;
77324;SDS011;66387;53.440;10.390;2024-03-17T01:39:36;10.73;;;3.40;;
77324;SDS011;66387;53.440;10.390;2024-03-17T01:42:01;10.20;;;2.50;;
77324;SDS011;66387;53.440;10.390;2024-03-17T01:44:27;8.63;;;2.67;;
77324;SDS011;66387;53.440;10.390;2024-03-17T01:46:54;6.70;;;2.65;;
77324;SDS011;66387;53.440;10.390;2024-03-17T01:49:20;10.52;;;2.22;;
77324;SDS011;66387;53.440;10.390;2024-03-17T01:51:47;6.93;;;2.17;;
77324;SDS011;66387;53.440;10.390;2024-03-17T01:54:13;8.93;;;2.33;;
77324;SDS011;66387;53.440;10.390;2024-03-17T01:56:40;8.25;;;2.40;;
77324;SDS011;66387;53.440;10.390;2024-03-17T01:59:05;9.82;;;2.67;;
77324;SDS011;66387;53.440;10.390;2024-03-17T02:01:35;8.00;;;2.45;;
77324;SDS011;66387;53.440;10.390;2024-03-17T02:06:28;7.57;;;2.35;;
77324;SDS011;66387;53.440;10.390;2024-03-17T02:08:54;5.97;;;1.70;;
77324;SDS011;66387;53.440;10.390;2024-03-17T02:11:26;11.98;;;2.40;;
77324;SDS011;66387;53.440;10.390;2024-03-17T02:13:53;7.25;;;2.25;;
77324;SDS011;66387;53.440;10.390;2024-03-17T02:16:20;7.57;;;2.42;;
77324;SDS011;66387;53.440;10.390;2024-03-17T02:18:46;10.05;;;2.50;;
77324;SDS011;66387;53.440;10.390;2024-03-17T02:21:15;9.27;;;2.35;;
77324;SDS011;66387;53.440;10.390;2024-03-17T02:23:43;10.07;;;2.85;;
77324;SDS011;66387;53.440;10.390;2024-03-17T02:26:09;10.20;;;2.38;;
77324;SDS011;66387;53.440;10.390;2024-03-17T02:28:38;12.32;;;2.25;;
77324;SDS011;66387;53.440;10.390;2024-03-17T02:31:06;11.52;;;3.00;;
77324;SDS011;66387;53.440;10.390;2024-03-17T02:33:32;8.50;;;2.13;;
77324;SDS011;66387;53.440;10.390;2024-03-17T02:35:58;9.30;;;2.55;;
77324;SDS011;66387;53.440;10.390;2024-03-17T02:38:24;9.23;;;2.70;;
77324;SDS011;66387;53.440;10.390;2024-03-17T02:41:12;9.00;;;2.40;;
77324;SDS011;66387;53.440;10.390;2024-03-17T02:43:37;5.45;;;2.15;;
77324;SDS011;66387;53.440;10.390;2024-03-17T02:46:03;11.77;;;3.40;;
77324;SDS011;66387;53.440;10.390;2024-03-17T02:48:32;4.70;;;2.10;;
77324;SDS011;66387;53.440;10.390;2024-03-17T02:50:58;9.73;;;2.60;;
77324;SDS011;66387;53.440;10.390;2024-03-17T02:53:23;6.43;;;1.58;;
77324;SDS011;66387;53.440;10.390;2024-03-17T02:55:49;9.70;;;2.60;;
77324;SDS011;66387;53.440;10.390;2024-03-17T02:58:14;7.70;;;1.70;;
77324;SDS011;66387;53.440;10.390;2024-03-17T03:00:39;11.82;;;2.60;;
77324;SDS011;66387;53.440;10.390;2024-03-17T03:03:05;9.45;;;2.42;;
77324;SDS011;66387;53.440;10.390;2024-03-17T03:05:30;12.15;;;2.85;;
77324;SDS011;66387;53.440;10.390;2024-03-17T03:07:56;7.43;;;2.55;;
77324;SDS011;66387;53.440;10.390;2024-03-17T03:10:21;7.43;;;2.63;;
77324;SDS011;66387;53.440;10.390;2024-03-17T03:12:46;9.38;;;2.10;;
77324;SDS011;66387;53.440;10.390;2024-03-17T03:15:12;10.97;;;2.57;;
77324;SDS011;66387;53.440;10.390;2024-03-17T03:17:37;5.78;;;2.22;;
77324;SDS011;66387;53.440;10.390;2024-03-17T03:20:03;5.88;;;1.92;;
77324;SDS011;66387;53.440;10.390;2024-03-17T03:22:30;5.25;;;1.70;;
77324;SDS011;66387;53.440;10.390;2024-03-17T03:24:56;5.70;;;2.30;;
77324;SDS011;66387;53.440;10.390;2024-03-17T03:27:21;8.20;;;2.93;;
77324;SDS011;66387;53.440;10.390;2024-03-17T03:29:47;6.07;;;2.10;;
77324;SDS011;66387;53.440;10.390;2024-03-17T03:32:12;6.45;;;2.22;;
77324;SDS011;66387;53.440;10.390;2024-03-17T03:34:38;5.32;;;1.98;;
77324;SDS011;66387;53.440;10.390;2024-03-17T03:37:04;7.85;;;2.22;;
77324;SDS011;66387;53.440;10.390;2024-03-17T03:39:32;7.32;;;2.33;;
77324;SDS011;66387;53.440;10.390;2024-03-17T03:41:57;9.17;;;2.87;;
77324;SDS011;66387;53.440;10.390;2024-03-17T03:44:22;8.50;;;2.92;;
77324;SDS011;66387;53.440;10.390;2024-03-17T03:46:47;13.03;;;2.50;;
77324;SDS011;66387;53.440;10.390;2024-03-17T03:49:13;6.70;;;2.50;;
77324;SDS011;66387;53.440;10.390;2024-03-17T03:51:38;8.27;;;2.20;;
77324;SDS011;66387;53.440;10.390;2024-03-17T03:54:04;7.35;;;2.30;;
77324;SDS011;66387;53.440;10.390;2024-03-17T03:56:31;3.60;;;1.85;;
77324;SDS011;66387;53.440;10.390;2024-03-17T03:58:56;5.67;;;2.40;;
77324;SDS011;66387;53.440;10.390;2024-03-17T04:01:21;18.57;;;3.30;;
77324;SDS011;66387;53.440;10.390;2024-03-17T04:03:47;6.32;;;1.98;;
77324;SDS011;66387;53.440;10.390;2024-03-17T04:06:13;5.47;;;2.30;;
77324;SDS011;66387;53.440;10.390;2024-03-17T04:08:40;5.65;;;2.25;;
77324;SDS011;66387;53.440;10.390;2024-03-17T04:11:06;7.47;;;2.83;;
77324;SDS011;66387;53.440;10.390;2024-03-17T04:13:32;6.43;;;2.28;;
77324;SDS011;66387;53.440;10.390;2024-03-17T04:15:58;7.80;;;2.10;;
77324;SDS011;66387;53.440;10.390;2024-03-17T04:18:23;4.45;;;2.35;;
77324;SDS011;66387;53.440;10.390;2024-03-17T04:20:55;7.43;;;2.40;;
77324;SDS011;66387;53.440;10.390;2024-03-17T04:23:21;5.57;;;1.67;;
77324;SDS011;66387;53.440;10.390;2024-03-17T04:25:48;5.22;;;2.40;;
77324;SDS011;66387;53.440;10.390;2024-03-17T04:28:14;9.50;;;2.25;;
77324;SDS011;66387;53.440;10.390;2024-03-17T04:30:40;5.20;;;1.98;;
77324;SDS011;66387;53.440;10.390;2024-03-17T04:33:06;8.88;;;2.65;;
77324;SDS011;66387;53.440;10.390;2024-03-17T04:35:34;8.38;;;1.85;;
77324;SDS011;66387;53.440;10.390;2024-03-17T04:38:01;6.35;;;2.65;;
77324;SDS011;66387;53.440;10.390;2024-03-17T04:40:26;6.93;;;1.87;;
77324;SDS011;66387;53.440;10.390;2024-03-17T04:42:51;7.17;;;2.07;;
77324;SDS011;66387;53.440;10.390;2024-03-17T04:45:16;12.53;;;2.90;;
77324;SDS011;66387;53.440;10.390;2024-03-17T04:47:42;7.05;;;2.63;;
77324;SDS011;66387;53.440;10.390;2024-03-17T04:50:07;4.23;;;2.30;;
77324;SDS011;66387;53.440;10.390;2024-03-17T04:52:33;12.07;;;2.75;;
77324;SDS011;66387;53.440;10.390;2024-03-17T04:54:58;4.47;;;1.90;;
77324;SDS011;66387;53.440;10.390;2024-03-17T04:57:24;6.75;;;2.30;;
77324;SDS011;66387;53.440;10.390;2024-03-17T04:59:49;3.27;;;1.93;;
77324;SDS011;66387;53.440;10.390;2024-03-17T05:02:14;9.57;;;2.80;;
77324;SDS011;66387;53.440;10.390;2024-03-17T05:04:39;10.53;;;2.40;;
77324;SDS011;66387;53.440;10.390;2024-03-17T05:07:07;8.20;;;2.50;;
77324;SDS011;66387;53.440;10.390;2024-03-17T05:09:32;7.13;;;2.22;;
77324;SDS011;66387;53.440;10.390;2024-03-17T05:11:57;5.87;;;2.60;;
77324;SDS011;66387;53.440;10.390;2024-03-17T05:14:22;6.20;;;2.40;;
77324;SDS011;66387;53.440;10.390;2024-03-17T05:16:49;7.72;;;2.33;;
77324;SDS011;66387;53.440;10.390;2024-03-17T05:19:15;10.65;;;2.58;;
77324;SDS011;66387;53.440;10.390;2024-03-17T05:21:40;5.90;;;2.78;;
77324;SDS011;66387;53.440;10.390;2024-03-17T05:24:06;6.27;;;2.00;;
77324;SDS011;66387;53.440;10.390;2024-03-17T05:26:31;11.03;;;2.83;;
77324;SDS011;66387;53.440;10.390;2024-03-17T05:28:56;11.30;;;2.50;;
77324;SDS011;66387;53.440;10.390;2024-03-17T05:31:21;7.55;;;2.83;;
77324;SDS011;66387;53.440;10.390;2024-03-17T05:33:47;8.55;;;2.85;;
77324;SDS011;66387;53.440;10.390;2024-03-17T05:36:13;5.25;;;2.03;;
77324;SDS011;66387;53.440;10.390;2024-03-17T05:38:39;7.85;;;2.67;;
77324;SDS011;66387;53.440;10.390;2024-03-17T05:41:04;17.23;;;3.05;;
77324;SDS011;66387;53.440;10.390;2024-03-17T05:43:32;15.25;;;2.92;;
77324;SDS011;66387;53.440;10.390;2024-03-17T05:45:59;5.70;;;2.33;;
77324;SDS011;66387;53.440;10.390;2024-03-17T05:48:26;9.55;;;2.72;;
77324;SDS011;66387;53.440;10.390;2024-03-17T05:50:51;9.10;;;3.00;;
77324;SDS011;66387;53.440;10.390;2024-03-17T05:53:17;7.13;;;2.25;;
77324;SDS011;66387;53.440;10.390;2024-03-17T05:55:43;7.60;;;2.63;;
77324;SDS011;66387;53.440;10.390;2024-03-17T05:58:09;8.43;;;2.70;;
77324;SDS011;66387;53.440;10.390;2024-03-17T06:00:35;8.02;;;2.65;;
77324;SDS011;66387;53.440;10.390;2024-03-17T06:03:01;10.23;;;2.55;;
77324;SDS011;66387;53.440;10.390;2024-03-17T06:05:27;7.63;;;2.67;;
77324;SDS011;66387;53.440;10.390;2024-03-17T06:07:53;7.05;;;2.75;;
77324;SDS011;66387;53.440;10.390;2024-03-17T06:10:18;7.03;;;2.43;;
77324;SDS011;66387;53.440;10.390;2024-03-17T06:12:43;7.53;;;2.67;;
77324;SDS011;66387;53.440;10.390;2024-03-17T06:15:08;10.10;;;3.37;;
77324;SDS011;66387;53.440;10.390;2024-03-17T06:17:34;10.77;;;2.97;;
77324;SDS011;66387;53.440;10.390;2024-03-17T06:20:00;9.90;;;3.17;;
77324;SDS011;66387;53.440;10.390;2024-03-17T06:22:28;8.88;;;2.03;;
77324;SDS011;66387;53.440;10.390;2024-03-17T06:24:53;7.83;;;3.00;;
77324;SDS011;66387;53.440;10.390;2024-03-17T06:27:18;9.73;;;2.43;;
77324;SDS011;66387;53.440;10.390;2024-03-17T06:29:43;13.73;;;3.10;;
77324;SDS011;66387;53.440;10.390;2024-03-17T06:32:10;7.80;;;2.50;;
77324;SDS011;66387;53.440;10.390;2024-03-17T06:34:36;7.30;;;2.90;;
77324;SDS011;66387;53.440;10.390;2024-03-17T06:37:01;7.80;;;2.38;;
77324;SDS011;66387;53.440;10.390;2024-03-17T06:39:27;6.40;;;2.50;;
77324;SDS011;66387;53.440;10.390;2024-03-17T06:41:52;13.90;;;3.30;;
77324;SDS011;66387;53.440;10.390;2024-03-17T06:44:17;7.20;;;2.43;;
77324;SDS011;66387;53.440;10.390;2024-03-17T06:46:42;9.13;;;2.73;;
77324;SDS011;66387;53.440;10.390;2024-03-17T06:49:09;8.98;;;2.38;;
77324;SDS011;66387;53.440;10.390;2024-03-17T06:51:34;8.95;;;3.33;;
77324;SDS011;66387;53.440;10.390;2024-03-17T06:54:00;5.38;;;2.88;;
77324;SDS011;66387;53.440;10.390;2024-03-17T06:56:26;10.20;;;3.55;;
77324;SDS011;66387;53.440;10.390;2024-03-17T06:58:51;5.70;;;3.50;;
77324;SDS011;66387;53.440;10.390;2024-03-17T07:01:17;15.70;;;4.03;;
77324;SDS011;66387;53.440;10.390;2024-03-17T07:03:42;10.30;;;3.47;;
77324;SDS011;66387;53.440;10.390;2024-03-17T07:06:08;5.60;;;3.25;;
77324;SDS011;66387;53.440;10.390;2024-03-17T07:08:34;7.15;;;3.92;;
77324;SDS011;66387;53.440;10.390;2024-03-17T07:11:01;16.43;;;4.40;;
77324;SDS011;66387;53.440;10.390;2024-03-17T07:13:31;9.95;;;3.78;;
77324;SDS011;66387;53.440;10.390;2024-03-17T07:15:57;7.68;;;3.08;;
77324;SDS011;66387;53.440;10.390;2024-03-17T07:18:30;8.13;;;3.70;;
77324;SDS011;66387;53.440;10.390;2024-03-17T07:20:58;11.45;;;4.47;;
77324;SDS011;66387;53.440;10.390;2024-03-17T07:23:25;11.70;;;4.15;;
77324;SDS011;66387;53.440;10.390;2024-03-17T07:25:51;14.23;;;4.20;;
77324;SDS011;66387;53.440;10.390;2024-03-17T07:28:20;11.70;;;3.88;;
77324;SDS011;66387;53.440;10.390;2024-03-17T07:30:47;7.05;;;3.50;;
77324;SDS011;66387;53.440;10.390;2024-03-17T07:33:12;10.00;;;4.07;;
77324;SDS011;66387;53.440;10.390;2024-03-17T07:35:45;13.53;;;3.97;;
77324;SDS011;66387;53.440;10.390;2024-03-17T07:38:17;10.68;;;4.07;;
77324;SDS011;66387;53.440;10.390;2024-03-17T07:40:43;9.65;;;4.13;;
77324;SDS011;66387;53.440;10.390;2024-03-17T07:43:09;12.38;;;3.88;;
77324;SDS011;66387;53.440;10.390;2024-03-17T07:45:35;7.55;;;3.47;;
77324;SDS011;66387;53.440;10.390;2024-03-17T07:48:00;10.10;;;2.93;;
77324;SDS011;66387;53.440;10.390;2024-03-17T07:50:25;7.47;;;2.83;;
77324;SDS011;66387;53.440;10.390;2024-03-17T07:52:51;6.70;;;2.63;;
77324;SDS011;66387;53.440;10.390;2024-03-17T07:55:17;13.20;;;3.47;;
77324;SDS011;66387;53.440;10.390;2024-03-17T07:57:42;9.75;;;4.13;;
77324;SDS011;66387;53.440;10.390;2024-03-17T08:00:08;11.68;;;3.25;;
77324;SDS011;66387;53.440;10.390;2024-03-17T08:02:40;6.57;;;3.00;;
77324;SDS011;66387;53.440;10.390;2024-03-17T08:05:11;10.10;;;3.33;;
77324;SDS011;66387;53.440;10.390;2024-03-17T08:07:37;13.93;;;3.50;;
77324;SDS011;66387;53.440;10.390;2024-03-17T08:10:03;7.85;;;2.85;;
77324;SDS011;66387;53.440;10.390;2024-03-17T08:12:28;7.28;;;3.00;;
77324;SDS011;66387;53.440;10.390;2024-03-17T08:14:54;8.93;;;3.08;;
77324;SDS011;66387;53.440;10.390;2024-03-17T08:17:20;7.70;;;3.03;;
77324;SDS011;66387;53.440;10.390;2024-03-17T08:19:45;5.63;;;3.10;;
77324;SDS011;66387;53.440;10.390;2024-03-17T08:22:10;9.23;;;3.33;;
77324;SDS011;66387;53.440;10.390;2024-03-17T08:24:35;6.77;;;2.53;;
77324;SDS011;66387;53.440;10.390;2024-03-17T08:27:01;6.83;;;2.67;;
77324;SDS011;66387;53.440;10.390;2024-03-17T08:29:26;4.93;;;1.87;;
77324;SDS011;66387;53.440;10.390;2024-03-17T08:31:51;6.37;;;2.23;;
77324;SDS011;66387;53.440;10.390;2024-03-17T08:34:16;9.70;;;2.53;;
77324;SDS011;66387;53.440;10.390;2024-03-17T08:36:42;7.87;;;2.20;;
77324;SDS011;66387;53.440;10.390;2024-03-17T08:39:07;6.83;;;2.27;;
77324;SDS011;66387;53.440;10.390;2024-03-17T08:41:34;6.60;;;2.22;;
77324;SDS011;66387;53.440;10.390;2024-03-17T08:43:59;3.67;;;1.63;;
77324;SDS011;66387;53.440;10.390;2024-03-17T08:46:25;9.95;;;2.33;;
77324;SDS011;66387;53.440;10.390;2024-03-17T08:48:50;5.57;;;1.87;;
77324;SDS011;66387;53.440;10.390;2024-03-17T08:51:16;6.97;;;1.83;;
77324;SDS011;66387;53.440;10.390;2024-03-17T08:53:41;5.10;;;1.03;;
77324;SDS011;66387;53.440;10.390;2024-03-17T08:56:06;5.10;;;1.40;;
77324;SDS011;66387;53.440;10.390;2024-03-17T08:58:32;3.97;;;1.40;;
77324;SDS011;66387;53.440;10.390;2024-03-17T09:00:57;4.87;;;2.30;;
77324;SDS011;66387;53.440;10.390;2024-03-17T09:03:22;6.93;;;1.27;;
77324;SDS011;66387;53.440;10.390;2024-03-17T09:05:48;3.35;;;1.30;;
77324;SDS011;66387;53.440;10.390;2024-03-17T09:08:18;4.75;;;1.48;;
77324;SDS011;66387;53.440;10.390;2024-03-17T09:10:48;4.13;;;1.60;;
77324;SDS011;66387;53.440;10.390;2024-03-17T09:13:16;10.43;;;2.65;;
77324;SDS011;66387;53.440;10.390;2024-03-17T09:16:01;5.10;;;1.67;;
77324;SDS011;66387;53.440;10.390;2024-03-17T09:18:27;5.30;;;1.58;;
77324;SDS011;66387;53.440;10.390;2024-03-17T09:20:56;4.20;;;2.80;;
77324;SDS011;66387;53.440;10.390;2024-03-17T09:23:22;4.82;;;1.48;;
77324;SDS011;66387;53.440;10.390;2024-03-17T09:26:02;4.63;;;1.30;;
77324;SDS011;66387;53.440;10.390;2024-03-17T09:28:28;4.40;;;1.20;;
77324;SDS011;66387;53.440;10.390;2024-03-17T09:30:55;5.97;;;1.77;;
77324;SDS011;66387;53.440;10.390;2024-03-17T09:33:21;6.80;;;1.85;;
77324;SDS011;66387;53.440;10.390;2024-03-17T09:35:57;7.10;;;2.33;;
77324;SDS011;66387;53.440;10.390;2024-03-17T09:38:27;10.05;;;2.75;;
77324;SDS011;66387;53.440;10.390;2024-03-17T09:40:53;5.63;;;1.38;;
77324;SDS011;66387;53.440;10.390;2024-03-17T09:43:22;6.07;;;1.75;;
77324;SDS011;66387;53.440;10.390;2024-03-17T09:45:48;5.03;;;1.98;;
77324;SDS011;66387;53.440;10.390;2024-03-17T09:48:15;6.95;;;2.30;;
77324;SDS011;66387;53.440;10.390;2024-03-17T09:50:46;7.32;;;1.73;;
77324;SDS011;66387;53.440;10.390;2024-03-17T09:53:16;9.38;;;3.00;;
77324;SDS011;66387;53.440;10.390;2024-03-17T09:55:43;4.50;;;1.40;;
77324;SDS011;66387;53.440;10.390;2024-03-17T09:58:13;5.22;;;2.05;;
77324;SDS011;66387;53.440;10.390;2024-03-17T10:00:41;7.10;;;1.65;;
77324;SDS011;66387;53.440;10.390;2024-03-17T10:03:06;2.37;;;1.33;;
77324;SDS011;66387;53.440;10.390;2024-03-17T10:05:33;6.18;;;2.13;;
77324;SDS011;66387;53.440;10.390;2024-03-17T10:07:58;3.88;;;1.20;;
77324;SDS011;66387;53.440;10.390;2024-03-17T10:10:24;8.93;;;1.77;;
77324;SDS011;66387;53.440;10.390;2024-03-17T10:12:49;6.55;;;1.65;;
77324;SDS011;66387;53.440;10.390;2024-03-17T10:15:16;5.45;;;2.28;;
77324;SDS011;66387;53.440;10.390;2024-03-17T10:17:42;5.65;;;1.67;;
77324;SDS011;66387;53.440;10.390;2024-03-17T10:20:17;6.13;;;2.23;;
77324;SDS011;66387;53.440;10.390;2024-03-17T10:23:03;6.30;;;2.00;;
77324;SDS011;66387;53.440;10.390;2024-03-17T10:25:34;4.72;;;1.48;;
77324;SDS011;66387;53.440;10.390;2024-03-17T10:28:04;5.22;;;1.80;;
77324;SDS011;66387;53.440;10.390;2024-03-17T10:30:36;8.05;;;2.05;;
77324;SDS011;66387;53.440;10.390;2024-03-17T10:33:02;4.38;;;1.77;;
77324;SDS011;66387;53.440;10.390;2024-03-17T10:37:58;4.10;;;1.27;;
77324;SDS011;66387;53.440;10.390;2024-03-17T10:40:25;6.05;;;1.67;;
77324;SDS011;66387;53.440;10.390;2024-03-17T10:42:51;7.10;;;2.20;;
77324;SDS011;66387;53.440;10.390;2024-03-17T10:45:17;6.97;;;2.63;;
77324;SDS011;66387;53.440;10.390;2024-03-17T10:47:47;5.00;;;1.70;;
77324;SDS011;66387;53.440;10.390;2024-03-17T10:50:23;7.38;;;2.55;;
77324;SDS011;66387;53.440;10.390;2024-03-17T10:52:49;4.53;;;1.83;;
77324;SDS011;66387;53.440;10.390;2024-03-17T10:55:22;4.68;;;1.98;;
77324;SDS011;66387;53.440;10.390;2024-03-17T10:57:49;9.93;;;2.92;;
77324;SDS011;66387;53.440;10.390;2024-03-17T11:00:22;4.72;;;1.50;;
77324;SDS011;66387;53.440;10.390;2024-03-17T11:02:48;8.57;;;2.13;;
77324;SDS011;66387;53.440;10.390;2024-03-17T11:07:58;5.50;;;1.77;;
77324;SDS011;66387;53.440;10.390;2024-03-17T11:10:30;10.00;;;1.75;;
77324;SDS011;66387;53.440;10.390;2024-03-17T11:13:02;4.15;;;1.60;;
77324;SDS011;66387;53.440;10.390;2024-03-17T11:20:33;7.70;;;1.98;;
77324;SDS011;66387;53.440;10.390;2024-03-17T11:22:59;6.35;;;1.85;;
77324;SDS011;66387;53.440;10.390;2024-03-17T11:27:50;5.53;;;1.60;;
77324;SDS011;66387;53.440;10.390;2024-03-17T11:35:52;6.22;;;2.13;;
77324;SDS011;66387;53.440;10.390;2024-03-17T11:38:53;7.53;;;1.98;;
77324;SDS011;66387;53.440;10.390;2024-03-17T11:41:44;9.45;;;2.50;;
77324;SDS011;66387;53.440;10.390;2024-03-17T11:49:18;5.72;;;1.52;;
77324;SDS011;66387;53.440;10.390;2024-03-17T11:51:47;5.10;;;1.63;;
77324;SDS011;66387;53.440;10.390;2024-03-17T11:54:17;3.35;;;1.77;;
77324;SDS011;66387;53.440;10.390;2024-03-17T11:56:48;7.18;;;2.80;;
77324;SDS011;66387;53.440;10.390;2024-03-17T11:59:15;5.40;;;1.50;;
77324;SDS011;66387;53.440;10.390;2024-03-17T12:04:07;3.10;;;1.17;;
77324;SDS011;66387;53.440;10.390;2024-03-17T12:06:33;4.97;;;1.95;;
77324;SDS011;66387;53.440;10.390;2024-03-17T12:09:15;5.28;;;1.70;;
77324;SDS011;66387;53.440;10.390;2024-03-17T12:14:19;6.63;;;1.70;;
77324;SDS011;66387;53.440;10.390;2024-03-17T12:16:51;5.20;;;1.90;;
77324;SDS011;66387;53.440;10.390;2024-03-17T12:19:19;4.68;;;1.65;;
77324;SDS011;66387;53.440;10.390;2024-03-17T12:21:45;4.50;;;1.58;;
77324;SDS011;66387;53.440;10.390;2024-03-17T12:24:14;4.88;;;1.60;;
77324;SDS011;66387;53.440;10.390;2024-03-17T12:26:40;6.38;;;1.80;;
77324;SDS011;66387;53.440;10.390;2024-03-17T12:31:53;5.63;;;1.52;;
77324;SDS011;66387;53.440;10.390;2024-03-17T12:34:20;5.43;;;2.20;;
77324;SDS011;66387;53.440;10.390;2024-03-17T12:36:46;5.05;;;2.05;;
77324;SDS011;66387;53.440;10.390;2024-03-17T12:39:20;6.10;;;1.92;;
77324;SDS011;66387;53.440;10.390;2024-03-17T12:44:29;5.63;;;1.60;;
77324;SDS011;66387;53.440;10.390;2024-03-17T12:46:58;5.38;;;1.42;;
77324;SDS011;66387;53.440;10.390;2024-03-17T12:49:25;4.13;;;1.60;;
77324;SDS011;66387;53.440;10.390;2024-03-17T12:51:52;6.57;;;1.80;;
77324;SDS011;66387;53.440;10.390;2024-03-17T12:54:21;4.75;;;1.85;;
77324;SDS011;66387;53.440;10.390;2024-03-17T12:56:51;3.53;;;1.58;;
77324;SDS011;66387;53.440;10.390;2024-03-17T12:59:46;6.53;;;1.85;;
77324;SDS011;66387;53.440;10.390;2024-03-17T13:02:30;4.93;;;1.80;;
77324;SDS011;66387;53.440;10.390;2024-03-17T13:05:15;5.60;;;1.80;;
77324;SDS011;66387;53.440;10.390;2024-03-17T13:10:09;3.22;;;1.63;;
77324;SDS011;66387;53.440;10.390;2024-03-17T13:12:35;4.97;;;2.13;;
77324;SDS011;66387;53.440;10.390;2024-03-17T13:15:01;3.80;;;1.52;;
77324;SDS011;66387;53.440;10.390;2024-03-17T13:17:26;3.83;;;1.55;;
77324;SDS011;66387;53.440;10.390;2024-03-17T13:19:54;4.65;;;1.83;;
77324;SDS011;66387;53.440;10.390;2024-03-17T13:22:19;5.97;;;1.88;;
77324;SDS011;66387;53.440;10.390;2024-03-17T13:24:44;3.43;;;1.83;;
77324;SDS011;66387;53.440;10.390;2024-03-17T13:27:09;2.93;;;0.90;;
77324;SDS011;66387;53.440;10.390;2024-03-17T13:29:35;3.83;;;1.67;;
77324;SDS011;66387;53.440;10.390;2024-03-17T13:32:03;4.10;;;2.08;;
77324;SDS011;66387;53.440;10.390;2024-03-17T13:34:30;4.88;;;1.50;;
77324;SDS011;66387;53.440;10.390;2024-03-17T13:36:56;4.55;;;1.73;;
77324;SDS011;66387;53.440;10.390;2024-03-17T13:39:21;5.15;;;1.45;;
77324;SDS011;66387;53.440;10.390;2024-03-17T13:41:47;5.40;;;1.57;;
77324;SDS011;66387;53.440;10.390;2024-03-17T13:44:14;6.72;;;1.77;;
77324;SDS011;66387;53.440;10.390;2024-03-17T13:46:39;4.93;;;1.50;;
77324;SDS011;66387;53.440;10.390;2024-03-17T13:49:08;4.97;;;1.73;;
77324;SDS011;66387;53.440;10.390;2024-03-17T13:51:34;6.93;;;2.05;;
77324;SDS011;66387;53.440;10.390;2024-03-17T13:53:59;4.53;;;2.10;;
77324;SDS011;66387;53.440;10.390;2024-03-17T13:56:24;4.20;;;1.63;;
77324;SDS011;66387;53.440;10.390;2024-03-17T13:58:50;7.13;;;1.80;;
77324;SDS011;66387;53.440;10.390;2024-03-17T14:01:16;4.88;;;1.63;;
77324;SDS011;66387;53.440;10.390;2024-03-17T14:03:41;4.90;;;1.83;;
77324;SDS011;66387;53.440;10.390;2024-03-17T14:06:08;7.45;;;1.83;;
77324;SDS011;66387;53.440;10.390;2024-03-17T14:08:33;8.73;;;2.28;;
77324;SDS011;66387;53.440;10.390;2024-03-17T14:10:59;5.73;;;2.50;;
77324;SDS011;66387;53.440;10.390;2024-03-17T14:13:24;3.93;;;1.90;;
77324;SDS011;66387;53.440;10.390;2024-03-17T14:15:49;6.73;;;1.77;;
77324;SDS011;66387;53.440;10.390;2024-03-17T14:18:15;4.00;;;1.43;;
77324;SDS011;66387;53.440;10.390;2024-03-17T14:20:40;4.70;;;1.70;;
77324;SDS011;66387;53.440;10.390;2024-03-17T14:23:05;4.00;;;1.53;;
77324;SDS011;66387;53.440;10.390;2024-03-17T14:25:30;7.00;;;2.20;;
77324;SDS011;66387;53.440;10.390;2024-03-17T14:27:56;4.57;;;1.93;;
77324;SDS011;66387;53.440;10.390;2024-03-17T14:30:21;5.37;;;3.07;;
77324;SDS011;66387;53.440;10.390;2024-03-17T14:32:46;2.93;;;1.70;;
77324;SDS011;66387;53.440;10.390;2024-03-17T14:35:13;7.30;;;2.00;;
77324;SDS011;66387;53.440;10.390;2024-03-17T14:40:07;5.15;;;1.50;;
77324;SDS011;66387;53.440;10.390;2024-03-17T14:42:39;4.57;;;1.55;;
77324;SDS011;66387;53.440;10.390;2024-03-17T14:45:06;3.28;;;1.83;;
77324;SDS011;66387;53.440;10.390;2024-03-17T14:47:32;8.13;;;1.70;;
77324;SDS011;66387;53.440;10.390;2024-03-17T14:49:57;4.07;;;1.97;;
77324;SDS011;66387;53.440;10.390;2024-03-17T14:52:22;4.53;;;1.80;;
77324;SDS011;66387;53.440;10.390;2024-03-17T14:54:49;4.97;;;1.95;;
77324;SDS011;66387;53.440;10.390;2024-03-17T14:57:16;4.25;;;1.25;;
77324;SDS011;66387;53.440;10.390;2024-03-17T14:59:43;4.82;;;2.10;;
77324;SDS011;66387;53.440;10.390;2024-03-17T15:02:08;6.05;;;2.40;;
77324;SDS011;66387;53.440;10.390;2024-03-17T15:04:34;6.47;;;2.43;;
77324;SDS011;66387;53.440;10.390;2024-03-17T15:06:59;4.47;;;1.70;;
77324;SDS011;66387;53.440;10.390;2024-03-17T15:09:24;4.23;;;1.67;;
77324;SDS011;66387;53.440;10.390;2024-03-17T15:11:49;3.17;;;1.33;;
77324;SDS011;66387;53.440;10.390;2024-03-17T15:14:15;2.37;;;1.93;;